Time;durP1;ratioP1;P1;durP2;ratioP2;P2;SDS_P1;SDS_P2;PMS_P1;PMS_P2;Temp;Humidity;BMP_temperature;BMP_pressure;BME280_temperature;BME280_humidity;BME280_pressure;Samples;Min_cycle;Max_cycle;Signal;HPM_P1;HPM_P2
2023/02/23 02:05:50;;;;;;;18.20;15.93;;;;;;;3.88;100.00;99055.28;6218716;22;20665;-83
2023/02/23 02:09:05;;;;;;;21.17;16.73;;;;;;;3.92;100.00;99053.06;6193323;23;20265;-82
2023/02/23 02:11:53;;;;;;;19.97;16.03;;;;;;;3.96;100.00;99072.91;6195101;23;20205;-82
2023/02/23 02:15:19;;;;;;;18.27;15.90;;;;;;;4.01;100.00;99057.25;6198135;23;20272;-81
2023/02/23 12:58:17;;;;;;;18.73;16.63;;;;;;;14.62;100.00;99053.28;6209895;23;20218;-90
2023/02/23 13:29:23;;;;;;;16.67;14.87;;;;;;;16.47;98.33;99014.69;6215631;22;20211;-93
2023/02/23 13:31:50;;;;;;;18.13;16.03;;;;;;;16.69;95.24;99016.03;6166287;23;20192;-94
2023/02/23 13:49:45;;;;;;;16.13;14.43;;;;;;;17.38;91.33;99004.41;6214476;22;20201;-95
2023/02/23 13:52:19;;;;;;;17.23;15.43;;;;;;;17.41;90.90;99005.72;6165079;23;20208;-94
2023/02/23 13:55:02;;;;;;;17.70;15.60;;;;;;;17.22;91.49;98999.34;6165356;23;20213;-96
2023/02/23 13:57:34;;;;;;;17.43;15.60;;;;;;;17.04;92.03;98998.84;6141794;23;20220;-95
2023/02/23 14:00:01;;;;;;;17.00;15.20;;;;;;;17.08;91.98;98999.09;6189281;23;20220;-94
2023/02/23 14:02:42;;;;;;;16.23;14.60;;;;;;;17.11;92.29;98996.69;6169985;23;20205;-95
2023/02/23 14:05:21;;;;;;;18.20;14.43;;;;;;;17.27;92.77;99002.81;6165977;23;20209;-95
2023/02/23 14:07:52;;;;;;;17.80;15.93;;;;;;;17.31;90.41;98998.47;6165289;23;20229;-93
2023/02/23 14:10:24;;;;;;;16.10;14.50;;;;;;;17.39;90.29;99007.91;6140265;23;20657;-94
2023/02/23 14:13:11;;;;;;;16.10;14.50;;;;;;;17.36;89.54;99006.56;6190161;23;20728;-95
2023/02/23 14:15:38;;;;;;;17.60;14.73;;;;;;;17.39;89.85;98999.78;6189953;23;20213;-95
2023/02/23 14:18:20;;;;;;;16.80;14.43;;;;;;;17.54;88.74;98994.31;6164304;23;20228;-96
2023/02/23 14:21:11;;;;;;;16.17;14.47;;;;;;;17.53;88.37;98990.78;6189796;23;20232;-95
2023/02/23 14:23:41;;;;;;;17.17;15.37;;;;;;;17.31;86.45;98987.63;6190352;23;20217;-96
2023/02/23 14:26:15;;;;;;;17.00;14.90;;;;;;;17.20;86.42;98999.63;6188791;23;20296;-96
2023/02/23 14:28:47;;;;;;;16.90;15.07;;;;;;;17.31;87.43;98995.75;6190678;23;20216;-95
2023/02/23 14:31:18;;;;;;;16.30;14.70;;;;;;;17.37;87.05;98991.94;6141211;23;20994;-95
2023/02/23 14:33:48;;;;;;;19.57;17.43;;;;;;;17.40;87.37;98994.09;6166748;23;20236;-94
2023/02/23 14:36:21;;;;;;;18.40;16.50;;;;;;;17.38;86.98;98987.34;6188653;23;20221;-95
2023/02/23 14:39:00;;;;;;;19.50;17.50;;;;;;;17.34;85.73;98994.41;6189611;23;20289;-94
2023/02/23 14:41:38;;;;;;;27.93;25.33;;;;;;;17.22;84.82;98989.31;6189025;23;20638;-95
2023/02/23 14:44:40;;;;;;;20.87;17.80;;;;;;;17.05;84.32;98984.25;6189516;23;20206;-95
2023/02/23 14:47:11;;;;;;;16.60;15.00;;;;;;;16.81;84.28;98985.13;6190670;23;20208;-96
2023/02/23 14:49:43;;;;;;;18.80;16.30;;;;;;;16.58;84.42;98987.38;6165100;23;20209;-95
2023/02/23 14:52:24;;;;;;;20.80;17.43;;;;;;;16.44;85.06;98991.69;6189284;23;20292;-96
2023/02/23 14:55:11;;;;;;;35.07;21.23;;;;;;;16.36;85.92;98986.03;6215591;23;20209;-94
2023/02/23 14:57:40;;;;;;;19.27;16.10;;;;;;;16.13;86.24;98988.22;6189121;23;20213;-94
2023/02/23 15:00:13;;;;;;;20.47;16.57;;;;;;;15.97;86.89;98980.38;6139572;23;20301;-93
2023/02/23 15:02:55;;;;;;;22.47;19.20;;;;;;;15.77;87.86;98978.50;6215758;23;20212;-95
2023/02/23 15:05:24;;;;;;;20.77;18.47;;;;;;;15.60;88.55;98986.81;6189107;23;20217;-92
2023/02/23 15:07:53;;;;;;;21.40;19.17;;;;;;;15.41;89.44;98980.28;6165104;23;20221;-95
2023/02/23 15:10:42;;;;;;;24.00;20.57;;;;;;;15.31;90.25;98983.75;6164198;23;20210;-95
2023/02/23 15:13:10;;;;;;;23.20;19.00;;;;;;;15.13;90.80;98992.34;6190109;23;20213;-95
2023/02/23 15:15:44;;;;;;;20.23;18.27;;;;;;;14.98;90.91;98989.56;6164419;23;20213;-95
2023/02/23 15:18:20;;;;;;;17.67;15.87;;;;;;;14.83;91.31;98990.34;6165145;23;20213;-95
2023/02/23 15:20:47;;;;;;;18.57;15.93;;;;;;;14.72;91.54;98995.94;6164817;23;20213;-94
2023/02/23 15:23:16;;;;;;;16.13;14.33;;;;;;;14.69;92.06;98988.38;6164887;23;20236;-95
2023/02/23 15:25:46;;;;;;;18.07;14.73;;;;;;;14.69;90.65;98988.38;6164771;23;20218;-93
2023/02/23 15:28:26;;;;;;;16.50;14.47;;;;;;;14.56;91.03;98983.44;6164910;23;20209;-92
2023/02/23 15:30:55;;;;;;;17.20;13.53;;;;;;;14.42;91.35;98988.44;6165218;23;20209;-95
2023/02/23 15:33:27;;;;;;;17.40;14.47;;;;;;;14.30;92.08;98983.25;6164967;23;20224;-95
2023/02/23 15:36:06;;;;;;;18.13;15.93;;;;;;;14.27;92.18;98986.47;6141580;23;20678;-92
2023/02/23 15:38:38;;;;;;;18.87;16.47;;;;;;;14.15;92.35;98975.03;6189039;23;20208;-94
2023/02/23 15:41:25;;;;;;;17.17;15.37;;;;;;;14.04;92.99;98984.91;6190391;23;20208;-94
2023/02/23 15:43:52;;;;;;;19.43;16.53;;;;;;;14.00;93.67;98980.31;6188754;23;20271;-92
2023/02/23 15:46:25;;;;;;;19.03;17.03;;;;;;;13.91;94.03;98979.97;6190177;23;20286;-93
